sensor_id;sensor_type;location;lat;lon;timestamp;pressure;altitude;pressure_sealevel;temperature;humidity
72857;BME280;62742;52.136;4.500;2023-06-14T00:01:14;101612.59;;;19.35;66.14
72857;BME280;62742;52.136;4.500;2023-06-14T00:03:40;101607.84;;;19.42;65.54
72857;BME280;62742;52.136;4.500;2023-06-14T00:06:15;101604.13;;;19.46;65.14
72857;BME280;62742;52.136;4.500;2023-06-14T00:08:43;101605.44;;;19.36;65.50
72857;BME280;62742;52.136;4.500;2023-06-14T00:11:09;101604.88;;;19.28;66.00
72857;BME280;62742;52.136;4.500;2023-06-14T00:13:35;101612.50;;;19.15;66.33
72857;BME280;62742;52.136;4.500;2023-06-14T00:16:01;101607.47;;;19.29;65.48
72857;BME280;62742;52.136;4.500;2023-06-14T00:18:29;101612.19;;;19.22;65.67
72857;BME280;62742;52.136;4.500;2023-06-14T00:20:56;101616.91;;;19.38;65.35
72857;BME280;62742;52.136;4.500;2023-06-14T00:23:22;101615.16;;;19.15;65.81
72857;BME280;62742;52.136;4.500;2023-06-14T00:25:49;101611.19;;;19.03;66.23
72857;BME280;62742;52.136;4.500;2023-06-14T00:28:15;101611.19;;;19.03;65.85
72857;BME280;62742;52.136;4.500;2023-06-14T00:30:41;101617.00;;;19.13;65.27
72857;BME280;62742;52.136;4.500;2023-06-14T00:33:09;101608.75;;;18.97;65.46
72857;BME280;62742;52.136;4.500;2023-06-14T00:35:36;101611.03;;;19.06;64.66
72857;BME280;62742;52.136;4.500;2023-06-14T00:38:02;101611.13;;;19.27;63.38
72857;BME280;62742;52.136;4.500;2023-06-14T00:40:28;101614.88;;;18.99;63.92
72857;BME280;62742;52.136;4.500;2023-06-14T00:42:54;101617.22;;;18.84;63.82
72857;BME280;62742;52.136;4.500;2023-06-14T00:45:21;101614.97;;;18.96;62.33
72857;BME280;62742;52.136;4.500;2023-06-14T00:47:47;101613.22;;;18.96;62.86
72857;BME280;62742;52.136;4.500;2023-06-14T00:50:19;101608.03;;;19.15;60.63
72857;BME280;62742;52.136;4.500;2023-06-14T00:52:47;101614.16;;;19.17;60.12
72857;BME280;62742;52.136;4.500;2023-06-14T00:55:13;101612.06;;;19.25;59.03
72857;BME280;62742;52.136;4.500;2023-06-14T00:57:39;101615.72;;;19.23;57.81
72857;BME280;62742;52.136;4.500;2023-06-14T01:00:07;101613.03;;;19.23;57.98
72857;BME280;62742;52.136;4.500;2023-06-14T01:02:37;101617.94;;;19.12;58.25
72857;BME280;62742;52.136;4.500;2023-06-14T01:05:04;101616.38;;;19.06;58.60
72857;BME280;62742;52.136;4.500;2023-06-14T01:12:56;101618.13;;;18.82;58.73
72857;BME280;62742;52.136;4.500;2023-06-14T01:15:31;101615.69;;;18.77;59.08
72857;BME280;62742;52.136;4.500;2023-06-14T01:17:58;101614.84;;;18.75;57.97
72857;BME280;62742;52.136;4.500;2023-06-14T01:20:29;101612.78;;;18.83;58.07
72857;BME280;62742;52.136;4.500;2023-06-14T01:22:58;101617.16;;;18.86;57.81
72857;BME280;62742;52.136;4.500;2023-06-14T01:25:25;101609.81;;;18.67;59.06
72857;BME280;62742;52.136;4.500;2023-06-14T01:30:36;101616.47;;;18.56;59.66
72857;BME280;62742;52.136;4.500;2023-06-14T01:33:05;101617.44;;;18.53;59.90
72857;BME280;62742;52.136;4.500;2023-06-14T01:35:31;101615.06;;;18.45;59.89
72857;BME280;62742;52.136;4.500;2023-06-14T01:37:57;101621.25;;;18.46;60.25
72857;BME280;62742;52.136;4.500;2023-06-14T01:40:26;101622.13;;;18.21;60.37
72857;BME280;62742;52.136;4.500;2023-06-14T01:42:53;101619.50;;;18.20;60.81
72857;BME280;62742;52.136;4.500;2023-06-14T01:45:19;101620.03;;;18.04;60.03
72857;BME280;62742;52.136;4.500;2023-06-14T01:47:47;101627.31;;;17.99;61.88
72857;BME280;62742;52.136;4.500;2023-06-14T01:50:14;101621.91;;;18.02;61.45
72857;BME280;62742;52.136;4.500;2023-06-14T01:52:40;101610.81;;;18.15;59.87
72857;BME280;62742;52.136;4.500;2023-06-14T01:55:08;101610.03;;;18.12;59.79
72857;BME280;62742;52.136;4.500;2023-06-14T01:57:36;101616.25;;;18.11;59.83
72857;BME280;62742;52.136;4.500;2023-06-14T02:00:03;101612.13;;;18.03;60.65
72857;BME280;62742;52.136;4.500;2023-06-14T02:02:30;101610.59;;;17.96;61.13
72857;BME280;62742;52.136;4.500;2023-06-14T02:04:56;101611.56;;;17.93;60.61
72857;BME280;62742;52.136;4.500;2023-06-14T02:07:23;101612.84;;;17.80;61.54
72857;BME280;62742;52.136;4.500;2023-06-14T02:09:49;101609.47;;;17.74;61.35
72857;BME280;62742;52.136;4.500;2023-06-14T02:12:16;101615.84;;;17.70;60.42
72857;BME280;62742;52.136;4.500;2023-06-14T02:14:42;101616.78;;;17.68;61.77
72857;BME280;62742;52.136;4.500;2023-06-14T02:17:10;101612.44;;;17.65;60.12
72857;BME280;62742;52.136;4.500;2023-06-14T02:19:36;101612.13;;;17.74;59.72
72857;BME280;62742;52.136;4.500;2023-06-14T02:22:02;101607.09;;;17.67;60.53
72857;BME280;62742;52.136;4.500;2023-06-14T02:24:29;101612.56;;;17.62;59.82
72857;BME280;62742;52.136;4.500;2023-06-14T02:26:55;101620.75;;;17.56;60.65
72857;BME280;62742;52.136;4.500;2023-06-14T02:29:21;101617.97;;;17.59;59.82
72857;BME280;62742;52.136;4.500;2023-06-14T02:31:50;101616.34;;;17.55;60.11
72857;BME280;62742;52.136;4.500;2023-06-14T02:34:17;101616.34;;;17.55;59.95
72857;BME280;62742;52.136;4.500;2023-06-14T02:36:43;101627.16;;;17.49;59.55
72857;BME280;62742;52.136;4.500;2023-06-14T02:39:11;101621.06;;;17.45;60.85
72857;BME280;62742;52.136;4.500;2023-06-14T02:41:37;101622.69;;;17.51;59.65
72857;BME280;62742;52.136;4.500;2023-06-14T02:44:04;101622.81;;;17.46;59.29
72857;BME280;62742;52.136;4.500;2023-06-14T02:46:31;101626.63;;;17.37;59.42
72857;BME280;62742;52.136;4.500;2023-06-14T02:48:57;101628.63;;;17.31;60.48
72857;BME280;62742;52.136;4.500;2023-06-14T02:51:26;101623.59;;;17.50;59.48
72857;BME280;62742;52.136;4.500;2023-06-14T02:53:52;101630.25;;;17.35;60.06
72857;BME280;62742;52.136;4.500;2023-06-14T02:56:22;101621.25;;;17.11;59.67
72857;BME280;62742;52.136;4.500;2023-06-14T02:58:48;101629.72;;;17.24;59.19
72857;BME280;62742;52.136;4.500;2023-06-14T03:01:15;101628.09;;;17.18;60.14
72857;BME280;62742;52.136;4.500;2023-06-14T03:03:46;101630.44;;;17.29;59.54
72857;BME280;62742;52.136;4.500;2023-06-14T03:06:12;101637.25;;;17.37;58.21
72857;BME280;62742;52.136;4.500;2023-06-14T03:08:40;101641.13;;;17.27;59.73
72857;BME280;62742;52.136;4.500;2023-06-14T03:11:07;101642.13;;;17.23;59.57
72857;BME280;62742;52.136;4.500;2023-06-14T03:13:34;101638.38;;;17.30;58.75
72857;BME280;62742;52.136;4.500;2023-06-14T03:16:01;101642.13;;;17.23;58.77
72857;BME280;62742;52.136;4.500;2023-06-14T03:18:30;101638.03;;;17.11;59.88
72857;BME280;62742;52.136;4.500;2023-06-14T03:21:01;101643.22;;;17.16;58.93
72857;BME280;62742;52.136;4.500;2023-06-14T03:23:28;101650.69;;;17.33;58.31
72857;BME280;62742;52.136;4.500;2023-06-14T03:25:54;101653.81;;;17.17;58.53
72857;BME280;62742;52.136;4.500;2023-06-14T03:28:21;101651.66;;;17.00;60.65
72857;BME280;62742;52.136;4.500;2023-06-14T03:30:47;101650.06;;;16.95;61.15
72857;BME280;62742;52.136;4.500;2023-06-14T03:33:14;101659.25;;;16.81;60.43
72857;BME280;62742;52.136;4.500;2023-06-14T03:35:41;101663.56;;;17.17;58.50
72857;BME280;62742;52.136;4.500;2023-06-14T03:38:07;101654.66;;;17.18;59.08
72857;BME280;62742;52.136;4.500;2023-06-14T03:40:33;101657.44;;;17.15;58.45
72857;BME280;62742;52.136;4.500;2023-06-14T03:43:00;101661.81;;;17.16;58.94
72857;BME280;62742;52.136;4.500;2023-06-14T03:45:26;101669.06;;;17.11;59.01
72857;BME280;62742;52.136;4.500;2023-06-14T03:47:52;101669.78;;;17.16;58.87
72857;BME280;62742;52.136;4.500;2023-06-14T03:50:18;101659.78;;;16.94;59.14
72857;BME280;62742;52.136;4.500;2023-06-14T03:52:45;101663.75;;;17.11;58.36
72857;BME280;62742;52.136;4.500;2023-06-14T03:55:14;101665.75;;;17.02;59.67
72857;BME280;62742;52.136;4.500;2023-06-14T03:57:42;101669.19;;;17.06;58.44
72857;BME280;62742;52.136;4.500;2023-06-14T04:00:09;101672.53;;;17.13;59.14
72857;BME280;62742;52.136;4.500;2023-06-14T04:02:36;101670.88;;;17.09;58.38
72857;BME280;62742;52.136;4.500;2023-06-14T04:05:03;101675.63;;;17.29;57.33
72857;BME280;62742;52.136;4.500;2023-06-14T04:07:29;101682.81;;;17.25;57.37
72857;BME280;62742;52.136;4.500;2023-06-14T04:09:56;101681.22;;;17.18;57.50
72857;BME280;62742;52.136;4.500;2023-06-14T04:12:28;101679.41;;;17.20;57.52
72857;BME280;62742;52.136;4.500;2023-06-14T04:14:54;101681.19;;;17.19;58.48
72857;BME280;62742;52.136;4.500;2023-06-14T04:17:21;101688.28;;;17.19;57.84
72857;BME280;62742;52.136;4.500;2023-06-14T04:19:47;101692.06;;;17.12;58.35
72857;BME280;62742;52.136;4.500;2023-06-14T04:22:18;101686.19;;;17.30;58.02
72857;BME280;62742;52.136;4.500;2023-06-14T04:24:44;101690.03;;;17.20;58.18
72857;BME280;62742;52.136;4.500;2023-06-14T04:27:10;101693.19;;;17.33;57.68
72857;BME280;62742;52.136;4.500;2023-06-14T04:29:36;101689.38;;;17.42;57.16
72857;BME280;62742;52.136;4.500;2023-06-14T04:32:03;101685.00;;;17.41;57.79
72857;BME280;62742;52.136;4.500;2023-06-14T04:34:34;101686.84;;;17.37;57.57
72857;BME280;62742;52.136;4.500;2023-06-14T04:37:00;101683.28;;;17.38;57.10
72857;BME280;62742;52.136;4.500;2023-06-14T04:39:27;101680.75;;;17.33;58.00
72857;BME280;62742;52.136;4.500;2023-06-14T04:41:53;101692.38;;;17.31;58.80
72857;BME280;62742;52.136;4.500;2023-06-14T04:44:25;101687.06;;;17.31;58.36
72857;BME280;62742;52.136;4.500;2023-06-14T04:46:57;101690.34;;;17.39;58.42
72857;BME280;62742;52.136;4.500;2023-06-14T04:49:24;101691.44;;;17.32;57.97
72857;BME280;62742;52.136;4.500;2023-06-14T04:51:53;101693.63;;;17.47;58.10
72857;BME280;62742;52.136;4.500;2023-06-14T04:54:23;101695.88;;;17.61;56.38
72857;BME280;62742;52.136;4.500;2023-06-14T04:56:53;101690.25;;;17.70;56.21
72857;BME280;62742;52.136;4.500;2023-06-14T04:59:21;101696.41;;;17.72;56.85
72857;BME280;62742;52.136;4.500;2023-06-14T05:01:51;101694.38;;;17.81;56.01
72857;BME280;62742;52.136;4.500;2023-06-14T05:04:19;101691.25;;;17.96;57.28
72857;BME280;62742;52.136;4.500;2023-06-14T05:06:48;101699.84;;;18.04;56.12
72857;BME280;62742;52.136;4.500;2023-06-14T05:09:14;101705.66;;;18.16;56.29
72857;BME280;62742;52.136;4.500;2023-06-14T05:11:44;101708.72;;;18.57;55.13
72857;BME280;62742;52.136;4.500;2023-06-14T05:14:10;101698.50;;;18.95;54.34
72857;BME280;62742;52.136;4.500;2023-06-14T05:16:38;101700.59;;;19.34;53.34
72857;BME280;62742;52.136;4.500;2023-06-14T05:19:04;101708.28;;;19.41;52.77
72857;BME280;62742;52.136;4.500;2023-06-14T05:21:31;101706.97;;;19.97;50.00
72857;BME280;62742;52.136;4.500;2023-06-14T05:23:59;101708.88;;;20.16;49.55
72857;BME280;62742;52.136;4.500;2023-06-14T05:26:27;101706.69;;;20.26;49.38
72857;BME280;62742;52.136;4.500;2023-06-14T05:28:59;101702.72;;;20.77;48.68
72857;BME280;62742;52.136;4.500;2023-06-14T05:31:27;101706.75;;;21.25;48.80
72857;BME280;62742;52.136;4.500;2023-06-14T05:34:02;101705.13;;;21.61;46.13
72857;BME280;62742;52.136;4.500;2023-06-14T05:36:28;101708.88;;;22.65;44.37
72857;BME280;62742;52.136;4.500;2023-06-14T05:38:55;101710.84;;;23.12;44.14
72857;BME280;62742;52.136;4.500;2023-06-14T05:41:28;101701.34;;;23.22;43.08
72857;BME280;62742;52.136;4.500;2023-06-14T05:43:58;101705.28;;;22.82;43.67
72857;BME280;62742;52.136;4.500;2023-06-14T05:46:27;101711.97;;;23.08;43.21
72857;BME280;62742;52.136;4.500;2023-06-14T05:48:54;101708.00;;;22.64;43.18
72857;BME280;62742;52.136;4.500;2023-06-14T05:51:21;101709.66;;;23.00;43.73
72857;BME280;62742;52.136;4.500;2023-06-14T05:53:50;101707.50;;;23.72;41.29
72857;BME280;62742;52.136;4.500;2023-06-14T05:56:17;101705.97;;;23.84;41.21
72857;BME280;62742;52.136;4.500;2023-06-14T05:58:44;101717.81;;;23.80;41.63
72857;BME280;62742;52.136;4.500;2023-06-14T06:01:11;101717.09;;;23.60;40.60
72857;BME280;62742;52.136;4.500;2023-06-14T06:03:39;101723.19;;;23.96;40.22
72857;BME280;62742;52.136;4.500;2023-06-14T06:06:05;101720.69;;;23.61;41.73
72857;BME280;62742;52.136;4.500;2023-06-14T06:08:33;101726.03;;;23.93;40.89
72857;BME280;62742;52.136;4.500;2023-06-14T06:10:59;101718.50;;;23.51;40.94
72857;BME280;62742;52.136;4.500;2023-06-14T06:13:27;101726.28;;;24.04;41.05
72857;BME280;62742;52.136;4.500;2023-06-14T06:15:53;101717.09;;;22.95;41.06
72857;BME280;62742;52.136;4.500;2023-06-14T06:18:19;101733.53;;;23.22;41.74
72857;BME280;62742;52.136;4.500;2023-06-14T06:20:45;101722.84;;;23.05;42.43
72857;BME280;62742;52.136;4.500;2023-06-14T06:23:13;101729.84;;;23.73;41.54
72857;BME280;62742;52.136;4.500;2023-06-14T06:25:39;101725.41;;;23.40;41.65
72857;BME280;62742;52.136;4.500;2023-06-14T06:28:05;101724.13;;;24.11;40.83
72857;BME280;62742;52.136;4.500;2023-06-14T06:30:33;101730.72;;;23.73;40.43
72857;BME280;62742;52.136;4.500;2023-06-14T06:32:59;101737.59;;;24.25;42.14
72857;BME280;62742;52.136;4.500;2023-06-14T06:35:25;101734.75;;;24.42;40.08
72857;BME280;62742;52.136;4.500;2023-06-14T06:37:51;101736.63;;;25.01;39.49
72857;BME280;62742;52.136;4.500;2023-06-14T06:40:18;101734.09;;;24.83;38.56
72857;BME280;62742;52.136;4.500;2023-06-14T06:42:47;101739.38;;;24.71;40.39
72857;BME280;62742;52.136;4.500;2023-06-14T06:45:15;101742.03;;;25.71;40.04
72857;BME280;62742;52.136;4.500;2023-06-14T06:47:43;101743.56;;;25.75;39.00
72857;BME280;62742;52.136;4.500;2023-06-14T06:50:10;101750.47;;;25.09;39.80
72857;BME280;62742;52.136;4.500;2023-06-14T06:52:40;101741.47;;;24.66;40.99
72857;BME280;62742;52.136;4.500;2023-06-14T06:55:07;101751.41;;;25.23;39.52
72857;BME280;62742;52.136;4.500;2023-06-14T06:57:36;101748.13;;;25.17;39.41
72857;BME280;62742;52.136;4.500;2023-06-14T07:00:04;101752.56;;;25.18;39.39
72857;BME280;62742;52.136;4.500;2023-06-14T07:02:36;101750.25;;;25.12;37.40
72857;BME280;62742;52.136;4.500;2023-06-14T07:05:03;101764.19;;;25.05;39.45
72857;BME280;62742;52.136;4.500;2023-06-14T07:07:31;101769.06;;;24.23;38.77
72857;BME280;62742;52.136;4.500;2023-06-14T07:09:59;101765.97;;;24.45;39.62
72857;BME280;62742;52.136;4.500;2023-06-14T07:12:26;101766.75;;;24.77;40.23
72857;BME280;62742;52.136;4.500;2023-06-14T07:14:52;101766.25;;;25.30;40.06
72857;BME280;62742;52.136;4.500;2023-06-14T07:17:30;101761.31;;;25.36;38.41
72857;BME280;62742;52.136;4.500;2023-06-14T07:19:58;101767.28;;;25.13;38.64
72857;BME280;62742;52.136;4.500;2023-06-14T07:22:30;101765.84;;;25.22;37.65
72857;BME280;62742;52.136;4.500;2023-06-14T07:25:07;101771.19;;;24.93;38.18
72857;BME280;62742;52.136;4.500;2023-06-14T07:27:39;101777.94;;;24.70;40.39
72857;BME280;62742;52.136;4.500;2023-06-14T07:30:14;101773.38;;;25.00;38.40
72857;BME280;62742;52.136;4.500;2023-06-14T07:32:42;101766.38;;;25.12;39.46
72857;BME280;62742;52.136;4.500;2023-06-14T07:35:10;101771.03;;;25.39;37.72
72857;BME280;62742;52.136;4.500;2023-06-14T07:37:48;101766.69;;;25.51;37.87
72857;BME280;62742;52.136;4.500;2023-06-14T07:40:34;101774.81;;;26.20;37.97
72857;BME280;62742;52.136;4.500;2023-06-14T07:43:00;101781.34;;;26.43;37.79
72857;BME280;62742;52.136;4.500;2023-06-14T07:45:28;101785.25;;;25.55;37.08
72857;BME280;62742;52.136;4.500;2023-06-14T07:47:54;101779.38;;;25.20;38.25
72857;BME280;62742;52.136;4.500;2023-06-14T07:50:20;101781.44;;;25.45;38.74
72857;BME280;62742;52.136;4.500;2023-06-14T07:52:47;101784.69;;;25.36;36.75
72857;BME280;62742;52.136;4.500;2023-06-14T07:55:14;101782.59;;;25.27;37.58
72857;BME280;62742;52.136;4.500;2023-06-14T07:57:41;101785.72;;;24.60;37.72
72857;BME280;62742;52.136;4.500;2023-06-14T08:00:08;101792.38;;;25.28;38.90
72857;BME280;62742;52.136;4.500;2023-06-14T08:02:37;101790.38;;;25.87;37.17
72857;BME280;62742;52.136;4.500;2023-06-14T08:05:03;101800.44;;;25.71;39.59
72857;BME280;62742;52.136;4.500;2023-06-14T08:07:30;101797.44;;;25.61;36.90
72857;BME280;62742;52.136;4.500;2023-06-14T08:09:56;101797.13;;;25.80;38.31
72857;BME280;62742;52.136;4.500;2023-06-14T08:12:22;101783.75;;;25.93;36.02
72857;BME280;62742;52.136;4.500;2023-06-14T08:14:48;101790.72;;;26.10;37.41
72857;BME280;62742;52.136;4.500;2023-06-14T08:17:15;101792.44;;;26.65;37.61
72857;BME280;62742;52.136;4.500;2023-06-14T08:19:41;101796.28;;;26.61;36.95
72857;BME280;62742;52.136;4.500;2023-06-14T08:22:07;101795.50;;;26.19;37.95
72857;BME280;62742;52.136;4.500;2023-06-14T08:24:33;101798.63;;;26.53;37.12
72857;BME280;62742;52.136;4.500;2023-06-14T08:26:59;101791.22;;;26.69;37.30
72857;BME280;62742;52.136;4.500;2023-06-14T08:29:27;101787.06;;;27.04;34.31
72857;BME280;62742;52.136;4.500;2023-06-14T08:31:55;101790.75;;;26.50;37.15
72857;BME280;62742;52.136;4.500;2023-06-14T08:34:21;101794.63;;;27.24;36.46
72857;BME280;62742;52.136;4.500;2023-06-14T08:36:52;101787.91;;;26.79;35.22
72857;BME280;62742;52.136;4.500;2023-06-14T08:39:18;101790.97;;;27.38;35.77
72857;BME280;62742;52.136;4.500;2023-06-14T08:41:47;101794.72;;;27.10;34.10
72857;BME280;62742;52.136;4.500;2023-06-14T08:44:17;101792.53;;;26.37;35.70
72857;BME280;62742;52.136;4.500;2023-06-14T08:46:43;101795.72;;;26.56;34.77
72857;BME280;62742;52.136;4.500;2023-06-14T08:49:11;101792.66;;;26.88;36.13
72857;BME280;62742;52.136;4.500;2023-06-14T08:51:38;101793.97;;;26.15;35.75
72857;BME280;62742;52.136;4.500;2023-06-14T08:54:06;101791.03;;;26.33;37.37
72857;BME280;62742;52.136;4.500;2023-06-14T08:56:32;101793.44;;;26.50;35.54
72857;BME280;62742;52.136;4.500;2023-06-14T08:59:04;101800.16;;;26.03;35.09
72857;BME280;62742;52.136;4.500;2023-06-14T09:01:34;101792.97;;;26.71;37.02
72857;BME280;62742;52.136;4.500;2023-06-14T09:04:01;101791.59;;;27.29;36.12
72857;BME280;62742;52.136;4.500;2023-06-14T09:06:28;101789.88;;;26.77;35.00
72857;BME280;62742;52.136;4.500;2023-06-14T09:08:55;101798.38;;;27.22;35.58
72857;BME280;62742;52.136;4.500;2023-06-14T09:11:24;101800.75;;;27.14;34.94
72857;BME280;62742;52.136;4.500;2023-06-14T09:13:52;101793.88;;;27.98;35.11
72857;BME280;62742;52.136;4.500;2023-06-14T09:16:18;101797.47;;;28.58;33.15
72857;BME280;62742;52.136;4.500;2023-06-14T09:18:45;101799.50;;;28.19;34.30
72857;BME280;62742;52.136;4.500;2023-06-14T09:21:16;101800.94;;;28.47;34.37
72857;BME280;62742;52.136;4.500;2023-06-14T09:23:44;101798.16;;;28.84;33.61
72857;BME280;62742;52.136;4.500;2023-06-14T09:26:12;101802.84;;;29.05;33.15
72857;BME280;62742;52.136;4.500;2023-06-14T09:28:43;101800.16;;;29.05;31.66
72857;BME280;62742;52.136;4.500;2023-06-14T09:31:11;101794.53;;;29.53;32.90
72857;BME280;62742;52.136;4.500;2023-06-14T09:33:42;101791.31;;;29.48;32.47
72857;BME280;62742;52.136;4.500;2023-06-14T09:36:24;101796.47;;;29.74;30.22
72857;BME280;62742;52.136;4.500;2023-06-14T09:39:01;101788.63;;;29.71;32.17
72857;BME280;62742;52.136;4.500;2023-06-14T09:41:33;101796.28;;;30.09;31.40
72857;BME280;62742;52.136;4.500;2023-06-14T09:44:01;101797.69;;;30.03;31.82
72857;BME280;62742;52.136;4.500;2023-06-14T09:46:29;101791.09;;;29.62;30.52
72857;BME280;62742;52.136;4.500;2023-06-14T09:48:56;101796.00;;;30.24;31.44
72857;BME280;62742;52.136;4.500;2023-06-14T09:51:23;101798.91;;;30.32;29.47
72857;BME280;62742;52.136;4.500;2023-06-14T09:53:50;101788.41;;;30.06;30.37
72857;BME280;62742;52.136;4.500;2023-06-14T09:56:38;101794.75;;;29.73;29.20
72857;BME280;62742;52.136;4.500;2023-06-14T09:59:08;101801.44;;;29.35;28.71
72857;BME280;62742;52.136;4.500;2023-06-14T10:01:39;101796.50;;;29.51;27.68
72857;BME280;62742;52.136;4.500;2023-06-14T10:04:08;101800.69;;;29.55;30.82
72857;BME280;62742;52.136;4.500;2023-06-14T10:06:37;101794.63;;;30.29;29.94
72857;BME280;62742;52.136;4.500;2023-06-14T10:09:07;101798.06;;;30.31;29.01
72857;BME280;62742;52.136;4.500;2023-06-14T10:11:35;101803.34;;;30.65;28.20
72857;BME280;62742;52.136;4.500;2023-06-14T10:14:04;101804.88;;;29.25;28.82
72857;BME280;62742;52.136;4.500;2023-06-14T10:22:26;101794.84;;;29.94;28.25
72857;BME280;62742;52.136;4.500;2023-06-14T10:24:58;101801.44;;;29.80;27.47
72857;BME280;62742;52.136;4.500;2023-06-14T10:27:26;101792.59;;;28.39;27.61
72857;BME280;62742;52.136;4.500;2023-06-14T10:32:20;101794.56;;;29.19;28.01
72857;BME280;62742;52.136;4.500;2023-06-14T10:34:53;101786.66;;;29.50;28.99
72857;BME280;62742;52.136;4.500;2023-06-14T10:37:23;101795.03;;;28.42;28.11
72857;BME280;62742;52.136;4.500;2023-06-14T10:39:53;101800.56;;;28.65;28.01
72857;BME280;62742;52.136;4.500;2023-06-14T10:42:20;101790.56;;;29.12;27.51
72857;BME280;62742;52.136;4.500;2023-06-14T10:44:51;101785.44;;;29.32;28.04
72857;BME280;62742;52.136;4.500;2023-06-14T10:47:29;101790.16;;;29.96;28.60
72857;BME280;62742;52.136;4.500;2023-06-14T10:50:04;101802.00;;;30.38;25.74
72857;BME280;62742;52.136;4.500;2023-06-14T10:52:33;101800.38;;;30.89;27.73
72857;BME280;62742;52.136;4.500;2023-06-14T10:57:38;101809.47;;;30.14;26.58
72857;BME280;62742;52.136;4.500;2023-06-14T11:00:13;101805.34;;;30.63;27.75
72857;BME280;62742;52.136;4.500;2023-06-14T11:05:25;101802.88;;;30.39;26.80
72857;BME280;62742;52.136;4.500;2023-06-14T11:10:46;101789.56;;;31.51;27.25
72857;BME280;62742;52.136;4.500;2023-06-14T11:13:28;101792.47;;;30.86;26.02
72857;BME280;62742;52.136;4.500;2023-06-14T11:15:54;101802.72;;;30.08;25.50
72857;BME280;62742;52.136;4.500;2023-06-14T11:18:23;101793.34;;;30.33;25.20
72857;BME280;62742;52.136;4.500;2023-06-14T11:20:50;101788.13;;;29.54;26.78
72857;BME280;62742;52.136;4.500;2023-06-14T11:23:17;101792.19;;;29.60;27.96
72857;BME280;62742;52.136;4.500;2023-06-14T11:25:43;101786.03;;;30.13;24.50
72857;BME280;62742;52.136;4.500;2023-06-14T11:28:09;101785.50;;;29.98;25.10
72857;BME280;62742;52.136;4.500;2023-06-14T11:30:36;101781.34;;;31.10;27.50
72857;BME280;62742;52.136;4.500;2023-06-14T11:33:11;101781.34;;;31.72;27.56
72857;BME280;62742;52.136;4.500;2023-06-14T11:35:44;101775.28;;;31.59;25.52
72857;BME280;62742;52.136;4.500;2023-06-14T11:38:19;101770.31;;;31.64;24.18
72857;BME280;62742;52.136;4.500;2023-06-14T11:40:46;101769.06;;;31.97;25.50
72857;BME280;62742;52.136;4.500;2023-06-14T11:43:12;101769.88;;;31.68;25.80
72857;BME280;62742;52.136;4.500;2023-06-14T11:45:40;101763.59;;;31.37;26.75
72857;BME280;62742;52.136;4.500;2023-06-14T11:48:06;101766.97;;;31.50;24.79
72857;BME280;62742;52.136;4.500;2023-06-14T11:50:33;101773.97;;;31.22;25.28
72857;BME280;62742;52.136;4.500;2023-06-14T11:53:04;101773.91;;;29.96;26.96
72857;BME280;62742;52.136;4.500;2023-06-14T11:55:38;101776.13;;;30.02;25.61
72857;BME280;62742;52.136;4.500;2023-06-14T11:58:06;101780.75;;;30.44;25.22
72857;BME280;62742;52.136;4.500;2023-06-14T12:00:34;101777.25;;;28.75;25.32
72857;BME280;62742;52.136;4.500;2023-06-14T12:03:01;101776.53;;;29.75;26.12
72857;BME280;62742;52.136;4.500;2023-06-14T12:05:28;101778.03;;;30.11;25.97
72857;BME280;62742;52.136;4.500;2023-06-14T12:08:03;101780.94;;;30.63;28.99
72857;BME280;62742;52.136;4.500;2023-06-14T12:10:40;101772.28;;;31.21;26.46
72857;BME280;62742;52.136;4.500;2023-06-14T12:13:09;101768.78;;;31.40;24.34
72857;BME280;62742;52.136;4.500;2023-06-14T12:15:36;101783.28;;;30.77;25.13
72857;BME280;62742;52.136;4.500;2023-06-14T12:18:06;101782.09;;;29.84;24.60
72857;BME280;62742;52.136;4.500;2023-06-14T12:20:35;101776.41;;;29.88;24.61
72857;BME280;62742;52.136;4.500;2023-06-14T12:23:03;101782.16;;;30.59;24.64
72857;BME280;62742;52.136;4.500;2023-06-14T12:25:30;101774.31;;;29.91;25.27
72857;BME280;62742;52.136;4.500;2023-06-14T12:27:59;101777.50;;;29.85;26.92
72857;BME280;62742;52.136;4.500;2023-06-14T12:30:29;101784.63;;;30.41;26.82
72857;BME280;62742;52.136;4.500;2023-06-14T12:32:56;101786.16;;;29.56;26.68
72857;BME280;62742;52.136;4.500;2023-06-14T12:35:22;101778.25;;;29.76;27.43
72857;BME280;62742;52.136;4.500;2023-06-14T12:37:48;101791.81;;;29.76;27.67
72857;BME280;62742;52.136;4.500;2023-06-14T12:40:14;101788.00;;;29.56;27.50
72857;BME280;62742;52.136;4.500;2023-06-14T12:42:41;101786.50;;;29.74;27.67
72857;BME280;62742;52.136;4.500;2023-06-14T12:45:08;101787.34;;;29.75;26.72
72857;BME280;62742;52.136;4.500;2023-06-14T12:47:35;101783.19;;;29.59;27.65
72857;BME280;62742;52.136;4.500;2023-06-14T12:50:01;101788.00;;;30.22;28.48
72857;BME280;62742;52.136;4.500;2023-06-14T12:52:28;101776.00;;;30.03;25.62
72857;BME280;62742;52.136;4.500;2023-06-14T12:54:54;101776.25;;;29.89;27.68
72857;BME280;62742;52.136;4.500;2023-06-14T12:57:20;101780.53;;;29.37;26.31
72857;BME280;62742;52.136;4.500;2023-06-14T12:59:46;101773.22;;;29.71;27.25
72857;BME280;62742;52.136;4.500;2023-06-14T13:02:13;101778.91;;;29.79;26.79
72857;BME280;62742;52.136;4.500;2023-06-14T13:04:41;101772.47;;;30.24;28.25
72857;BME280;62742;52.136;4.500;2023-06-14T13:07:07;101780.28;;;29.40;27.82
72857;BME280;62742;52.136;4.500;2023-06-14T13:09:33;101779.50;;;29.60;28.69
72857;BME280;62742;52.136;4.500;2023-06-14T13:12:00;101794.16;;;29.69;26.91
72857;BME280;62742;52.136;4.500;2023-06-14T13:14:27;101788.84;;;29.68;27.97
72857;BME280;62742;52.136;4.500;2023-06-14T13:16:53;101790.38;;;30.15;26.40
72857;BME280;62742;52.136;4.500;2023-06-14T13:19:19;101785.53;;;30.19;26.03